sensor_id;sensor_type;location;lat;lon;timestamp;pressure;altitude;pressure_sealevel;temperature;humidity
20444;BME280;10381;53.730;10.010;2023-07-16T00:01:32;100748.13;;;16.34;100.00
20444;BME280;10381;53.730;10.010;2023-07-16T00:05:33;100769.66;;;16.32;100.00
20444;BME280;10381;53.730;10.010;2023-07-16T00:09:33;100795.53;;;16.40;100.00
20444;BME280;10381;53.730;10.010;2023-07-16T00:13:33;100762.81;;;16.38;100.00
20444;BME280;10381;53.730;10.010;2023-07-16T00:17:34;100704.31;;;16.35;100.00
20444;BME280;10381;53.730;10.010;2023-07-16T00:21:34;100690.28;;;16.33;100.00
20444;BME280;10381;53.730;10.010;2023-07-16T00:25:35;100691.16;;;16.33;100.00
20444;BME280;10381;53.730;10.010;2023-07-16T00:29:35;100677.13;;;16.31;100.00
20444;BME280;10381;53.730;10.010;2023-07-16T00:33:35;100675.78;;;16.27;100.00
20444;BME280;10381;53.730;10.010;2023-07-16T00:37:35;100668.56;;;16.36;100.00
20444;BME280;10381;53.730;10.010;2023-07-16T00:41:36;100699.94;;;16.42;100.00
20444;BME280;10381;53.730;10.010;2023-07-16T00:45:37;100693.75;;;16.42;100.00
20444;BME280;10381;53.730;10.010;2023-07-16T00:49:38;100666.84;;;16.43;100.00
20444;BME280;10381;53.730;10.010;2023-07-16T00:53:40;100650.97;;;16.42;100.00
20444;BME280;10381;53.730;10.010;2023-07-16T00:57:40;100672.72;;;16.38;100.00
20444;BME280;10381;53.730;10.010;2023-07-16T01:01:41;100706.66;;;16.38;100.00
20444;BME280;10381;53.730;10.010;2023-07-16T01:10:12;100686.56;;;16.42;100.00
20444;BME280;10381;53.730;10.010;2023-07-16T01:14:14;100673.56;;;16.39;100.00
20444;BME280;10381;53.730;10.010;2023-07-16T01:18:16;100710.81;;;16.40;100.00
20444;BME280;10381;53.730;10.010;2023-07-16T01:22:28;100733.34;;;16.46;100.00
20444;BME280;10381;53.730;10.010;2023-07-16T01:30:58;100710.31;;;16.45;100.00
20444;BME280;10381;53.730;10.010;2023-07-16T01:34:59;100702.63;;;16.42;100.00
20444;BME280;10381;53.730;10.010;2023-07-16T01:39:00;100718.34;;;16.37;100.00
20444;BME280;10381;53.730;10.010;2023-07-16T01:43:01;100726.22;;;16.38;100.00
20444;BME280;10381;53.730;10.010;2023-07-16T01:47:07;100746.41;;;16.41;100.00
20444;BME280;10381;53.730;10.010;2023-07-16T01:51:08;100760.78;;;16.40;100.00
20444;BME280;10381;53.730;10.010;2023-07-16T01:55:08;100740.09;;;16.34;100.00
20444;BME280;10381;53.730;10.010;2023-07-16T01:59:08;100729.94;;;16.29;100.00
20444;BME280;10381;53.730;10.010;2023-07-16T02:03:09;100724.75;;;16.28;100.00
20444;BME280;10381;53.730;10.010;2023-07-16T02:07:09;100718.94;;;16.24;100.00
20444;BME280;10381;53.730;10.010;2023-07-16T02:11:09;100713.75;;;16.23;100.00
20444;BME280;10381;53.730;10.010;2023-07-16T02:15:10;100713.28;;;16.11;100.00
20444;BME280;10381;53.730;10.010;2023-07-16T02:19:10;100714.31;;;16.02;100.00
20444;BME280;10381;53.730;10.010;2023-07-16T02:23:10;100713.50;;;16.01;100.00
20444;BME280;10381;53.730;10.010;2023-07-16T02:27:10;100705.69;;;15.91;100.00
20444;BME280;10381;53.730;10.010;2023-07-16T02:31:11;100702.34;;;15.89;100.00
20444;BME280;10381;53.730;10.010;2023-07-16T02:35:11;100688.53;;;15.86;100.00
20444;BME280;10381;53.730;10.010;2023-07-16T02:39:11;100691.19;;;15.77;100.00
20444;BME280;10381;53.730;10.010;2023-07-16T02:43:12;100688.53;;;15.77;100.00
20444;BME280;10381;53.730;10.010;2023-07-16T02:47:12;100706.41;;;15.77;100.00
20444;BME280;10381;53.730;10.010;2023-07-16T02:51:12;100702.75;;;15.78;100.00
20444;BME280;10381;53.730;10.010;2023-07-16T02:55:13;100696.41;;;15.71;100.00
20444;BME280;10381;53.730;10.010;2023-07-16T02:59:13;100703.25;;;15.73;100.00
20444;BME280;10381;53.730;10.010;2023-07-16T03:03:13;100720.94;;;15.83;100.00
20444;BME280;10381;53.730;10.010;2023-07-16T03:07:13;100698.69;;;15.82;100.00
20444;BME280;10381;53.730;10.010;2023-07-16T03:11:14;100698.53;;;15.84;100.00
20444;BME280;10381;53.730;10.010;2023-07-16T03:15:14;100705.72;;;15.83;100.00
20444;BME280;10381;53.730;10.010;2023-07-16T03:19:14;100699.88;;;15.88;100.00
20444;BME280;10381;53.730;10.010;2023-07-16T03:23:15;100670.81;;;15.85;100.00
20444;BME280;10381;53.730;10.010;2023-07-16T03:27:15;100664.47;;;15.86;100.00
20444;BME280;10381;53.730;10.010;2023-07-16T03:31:15;100664.13;;;15.89;100.00
20444;BME280;10381;53.730;10.010;2023-07-16T03:35:15;100667.97;;;15.86;100.00
20444;BME280;10381;53.730;10.010;2023-07-16T03:39:16;100667.16;;;15.86;100.00
20444;BME280;10381;53.730;10.010;2023-07-16T03:43:16;100647.09;;;15.90;100.00
20444;BME280;10381;53.730;10.010;2023-07-16T03:47:17;100656.47;;;15.86;100.00
20444;BME280;10381;53.730;10.010;2023-07-16T03:51:17;100663.13;;;15.90;100.00
20444;BME280;10381;53.730;10.010;2023-07-16T03:55:17;100683.50;;;15.91;100.00
20444;BME280;10381;53.730;10.010;2023-07-16T03:59:17;100689.50;;;15.93;100.00
20444;BME280;10381;53.730;10.010;2023-07-16T04:03:18;100690.47;;;16.00;100.00
20444;BME280;10381;53.730;10.010;2023-07-16T04:07:18;100693.44;;;16.05;100.00
20444;BME280;10381;53.730;10.010;2023-07-16T04:11:18;100696.78;;;16.07;100.00
20444;BME280;10381;53.730;10.010;2023-07-16T04:15:18;100704.59;;;16.09;100.00
20444;BME280;10381;53.730;10.010;2023-07-16T04:19:19;100703.94;;;16.15;100.00
20444;BME280;10381;53.730;10.010;2023-07-16T04:23:19;100717.75;;;16.27;100.00
20444;BME280;10381;53.730;10.010;2023-07-16T04:27:20;100710.16;;;16.38;100.00
20444;BME280;10381;53.730;10.010;2023-07-16T04:31:20;100712.19;;;16.59;100.00
20444;BME280;10381;53.730;10.010;2023-07-16T04:35:20;100709.63;;;16.97;100.00
20444;BME280;10381;53.730;10.010;2023-07-16T04:39:21;100700.69;;;17.43;100.00
20444;BME280;10381;53.730;10.010;2023-07-16T04:43:21;100666.16;;;18.07;100.00
20444;BME280;10381;53.730;10.010;2023-07-16T04:47:21;100596.81;;;18.62;100.00
20444;BME280;10381;53.730;10.010;2023-07-16T04:51:22;100543.38;;;18.67;100.00
20444;BME280;10381;53.730;10.010;2023-07-16T04:55:22;100512.13;;;18.31;100.00
20444;BME280;10381;53.730;10.010;2023-07-16T04:59:22;100500.28;;;18.19;100.00
20444;BME280;10381;53.730;10.010;2023-07-16T05:03:22;100512.09;;;18.53;100.00
20444;BME280;10381;53.730;10.010;2023-07-16T05:07:23;100508.56;;;18.24;100.00
20444;BME280;10381;53.730;10.010;2023-07-16T05:11:23;100510.00;;;18.48;100.00
20444;BME280;10381;53.730;10.010;2023-07-16T05:15:26;100504.56;;;18.42;100.00
20444;BME280;10381;53.730;10.010;2023-07-16T05:19:26;100525.34;;;18.55;100.00
20444;BME280;10381;53.730;10.010;2023-07-16T05:23:26;100532.00;;;18.65;100.00
20444;BME280;10381;53.730;10.010;2023-07-16T05:27:28;100516.75;;;18.16;100.00
20444;BME280;10381;53.730;10.010;2023-07-16T05:31:28;100535.00;;;18.27;100.00
20444;BME280;10381;53.730;10.010;2023-07-16T05:35:28;100533.78;;;18.30;100.00
20444;BME280;10381;53.730;10.010;2023-07-16T05:39:29;100534.34;;;18.25;100.00
20444;BME280;10381;53.730;10.010;2023-07-16T05:43:29;100549.81;;;18.45;100.00
20444;BME280;10381;53.730;10.010;2023-07-16T05:47:29;100538.63;;;18.41;100.00
20444;BME280;10381;53.730;10.010;2023-07-16T05:51:29;100524.81;;;18.94;100.00
20444;BME280;10381;53.730;10.010;2023-07-16T05:55:30;100521.72;;;18.69;100.00
20444;BME280;10381;53.730;10.010;2023-07-16T05:59:30;100536.31;;;18.88;100.00
20444;BME280;10381;53.730;10.010;2023-07-16T06:03:34;100530.81;;;18.96;100.00
20444;BME280;10381;53.730;10.010;2023-07-16T06:07:34;100544.28;;;19.03;100.00
20444;BME280;10381;53.730;10.010;2023-07-16T06:11:35;100536.47;;;19.08;100.00
20444;BME280;10381;53.730;10.010;2023-07-16T06:15:36;100529.06;;;19.16;100.00
20444;BME280;10381;53.730;10.010;2023-07-16T06:19:36;100534.66;;;19.22;100.00
20444;BME280;10381;53.730;10.010;2023-07-16T06:23:36;100513.91;;;19.02;100.00
20444;BME280;10381;53.730;10.010;2023-07-16T06:27:36;100537.53;;;19.13;100.00
20444;BME280;10381;53.730;10.010;2023-07-16T06:31:37;100519.25;;;19.37;100.00
20444;BME280;10381;53.730;10.010;2023-07-16T06:35:37;100528.69;;;19.20;100.00
20444;BME280;10381;53.730;10.010;2023-07-16T06:39:38;100522.38;;;18.99;100.00
20444;BME280;10381;53.730;10.010;2023-07-16T06:43:38;100532.63;;;19.24;100.00
20444;BME280;10381;53.730;10.010;2023-07-16T06:47:38;100528.97;;;19.38;100.00
20444;BME280;10381;53.730;10.010;2023-07-16T06:51:38;100529.06;;;19.58;100.00
20444;BME280;10381;53.730;10.010;2023-07-16T06:55:39;100538.16;;;19.57;100.00
20444;BME280;10381;53.730;10.010;2023-07-16T06:59:39;100544.97;;;19.59;100.00
20444;BME280;10381;53.730;10.010;2023-07-16T07:03:39;100546.16;;;19.50;100.00
20444;BME280;10381;53.730;10.010;2023-07-16T07:07:39;100554.09;;;19.58;100.00
20444;BME280;10381;53.730;10.010;2023-07-16T07:11:40;100558.16;;;19.48;100.00
20444;BME280;10381;53.730;10.010;2023-07-16T07:15:41;100560.38;;;19.37;100.00
20444;BME280;10381;53.730;10.010;2023-07-16T07:19:43;100567.06;;;19.48;100.00
20444;BME280;10381;53.730;10.010;2023-07-16T07:23:43;100551.16;;;19.53;100.00
20444;BME280;10381;53.730;10.010;2023-07-16T07:27:44;100563.75;;;19.94;100.00
20444;BME280;10381;53.730;10.010;2023-07-16T07:31:44;100565.41;;;19.95;100.00
20444;BME280;10381;53.730;10.010;2023-07-16T07:35:44;100565.44;;;20.15;100.00
20444;BME280;10381;53.730;10.010;2023-07-16T07:39:44;100566.72;;;20.26;100.00
20444;BME280;10381;53.730;10.010;2023-07-16T07:43:47;100570.44;;;20.38;100.00
20444;BME280;10381;53.730;10.010;2023-07-16T07:47:48;100563.34;;;19.97;100.00
20444;BME280;10381;53.730;10.010;2023-07-16T07:51:48;100573.69;;;20.00;100.00
20444;BME280;10381;53.730;10.010;2023-07-16T07:55:49;100575.88;;;19.77;100.00
20444;BME280;10381;53.730;10.010;2023-07-16T07:59:49;100572.88;;;20.07;100.00
20444;BME280;10381;53.730;10.010;2023-07-16T08:03:52;100586.44;;;20.87;100.00
20444;BME280;10381;53.730;10.010;2023-07-16T08:07:52;100581.56;;;20.09;100.00
20444;BME280;10381;53.730;10.010;2023-07-16T08:11:53;100583.69;;;20.47;100.00
20444;BME280;10381;53.730;10.010;2023-07-16T08:15:53;100576.66;;;20.46;100.00
20444;BME280;10381;53.730;10.010;2023-07-16T08:19:53;100583.31;;;20.50;100.00
20444;BME280;10381;53.730;10.010;2023-07-16T08:23:54;100593.41;;;20.34;100.00
20444;BME280;10381;53.730;10.010;2023-07-16T08:27:54;100594.03;;;20.36;100.00
20444;BME280;10381;53.730;10.010;2023-07-16T08:31:55;100598.44;;;20.77;100.00
20444;BME280;10381;53.730;10.010;2023-07-16T08:35:55;100597.81;;;21.02;100.00
20444;BME280;10381;53.730;10.010;2023-07-16T08:39:55;100596.78;;;21.10;100.00
20444;BME280;10381;53.730;10.010;2023-07-16T08:43:56;100591.16;;;21.04;100.00
20444;BME280;10381;53.730;10.010;2023-07-16T08:47:56;100588.31;;;20.93;100.00
20444;BME280;10381;53.730;10.010;2023-07-16T08:51:57;100592.84;;;21.12;100.00
20444;BME280;10381;53.730;10.010;2023-07-16T08:55:58;100604.84;;;20.96;100.00
20444;BME280;10381;53.730;10.010;2023-07-16T08:59:58;100598.25;;;20.59;100.00
20444;BME280;10381;53.730;10.010;2023-07-16T09:03:59;100622.09;;;20.00;100.00
20444;BME280;10381;53.730;10.010;2023-07-16T09:07:59;100630.00;;;19.04;100.00
20444;BME280;10381;53.730;10.010;2023-07-16T09:12:00;100663.88;;;18.41;100.00
20444;BME280;10381;53.730;10.010;2023-07-16T09:16:01;100675.88;;;18.66;100.00
20444;BME280;10381;53.730;10.010;2023-07-16T09:20:02;100670.25;;;18.76;100.00
20444;BME280;10381;53.730;10.010;2023-07-16T09:24:07;100664.41;;;19.50;100.00
20444;BME280;10381;53.730;10.010;2023-07-16T09:28:07;100652.84;;;19.91;100.00
20444;BME280;10381;53.730;10.010;2023-07-16T09:32:08;100632.69;;;20.22;100.00
20444;BME280;10381;53.730;10.010;2023-07-16T09:36:08;100633.88;;;21.01;100.00
20444;BME280;10381;53.730;10.010;2023-07-16T09:40:10;100627.44;;;20.89;100.00
20444;BME280;10381;53.730;10.010;2023-07-16T09:44:11;100642.88;;;21.73;100.00
20444;BME280;10381;53.730;10.010;2023-07-16T09:48:12;100643.97;;;22.10;100.00
20444;BME280;10381;53.730;10.010;2023-07-16T09:52:13;100637.66;;;21.85;100.00
20444;BME280;10381;53.730;10.010;2023-07-16T09:56:15;100736.56;;;21.91;100.00
20444;BME280;10381;53.730;10.010;2023-07-16T10:00:17;100674.41;;;22.31;100.00
20444;BME280;10381;53.730;10.010;2023-07-16T10:04:19;100677.13;;;21.53;100.00
20444;BME280;10381;53.730;10.010;2023-07-16T10:08:20;100658.91;;;21.01;100.00
20444;BME280;10381;53.730;10.010;2023-07-16T10:12:21;100676.50;;;20.71;100.00
20444;BME280;10381;53.730;10.010;2023-07-16T10:16:22;100685.66;;;21.03;100.00
20444;BME280;10381;53.730;10.010;2023-07-16T10:20:33;100676.09;;;22.25;100.00
20444;BME280;10381;53.730;10.010;2023-07-16T10:24:38;100679.44;;;21.56;100.00
20444;BME280;10381;53.730;10.010;2023-07-16T10:28:39;100673.63;;;21.25;100.00
20444;BME280;10381;53.730;10.010;2023-07-16T10:32:40;100669.91;;;21.20;100.00
20444;BME280;10381;53.730;10.010;2023-07-16T10:36:40;100681.50;;;20.94;100.00
20444;BME280;10381;53.730;10.010;2023-07-16T10:40:43;100679.44;;;21.22;100.00
20444;BME280;10381;53.730;10.010;2023-07-16T10:44:43;100685.66;;;20.83;100.00
20444;BME280;10381;53.730;10.010;2023-07-16T10:48:47;100687.53;;;21.42;100.00
20444;BME280;10381;53.730;10.010;2023-07-16T10:52:55;100691.69;;;22.23;100.00
20444;BME280;10381;53.730;10.010;2023-07-16T10:56:55;100696.03;;;21.39;100.00
20444;BME280;10381;53.730;10.010;2023-07-16T11:00:56;100687.25;;;21.77;100.00
20444;BME280;10381;53.730;10.010;2023-07-16T11:04:56;100701.13;;;22.39;100.00
20444;BME280;10381;53.730;10.010;2023-07-16T11:09:08;100690.66;;;22.56;100.00
20444;BME280;10381;53.730;10.010;2023-07-16T11:13:09;100708.69;;;22.24;100.00
20444;BME280;10381;53.730;10.010;2023-07-16T11:17:09;100730.84;;;21.47;100.00
20444;BME280;10381;53.730;10.010;2023-07-16T11:21:10;100729.78;;;21.35;100.00
20444;BME280;10381;53.730;10.010;2023-07-16T11:25:11;100738.31;;;21.65;100.00
20444;BME280;10381;53.730;10.010;2023-07-16T11:29:13;100746.53;;;21.97;100.00
20444;BME280;10381;53.730;10.010;2023-07-16T11:33:14;100750.53;;;21.75;100.00
20444;BME280;10381;53.730;10.010;2023-07-16T11:37:15;100743.25;;;21.15;100.00
20444;BME280;10381;53.730;10.010;2023-07-16T11:41:20;100755.53;;;21.51;100.00
20444;BME280;10381;53.730;10.010;2023-07-16T11:45:22;100759.41;;;21.95;100.00
20444;BME280;10381;53.730;10.010;2023-07-16T11:49:26;100763.47;;;22.31;100.00
20444;BME280;10381;53.730;10.010;2023-07-16T11:53:32;100753.84;;;21.63;100.00
20444;BME280;10381;53.730;10.010;2023-07-16T11:57:33;100764.78;;;21.88;100.00
20444;BME280;10381;53.730;10.010;2023-07-16T12:01:34;100763.84;;;22.41;100.00
20444;BME280;10381;53.730;10.010;2023-07-16T12:05:34;100773.44;;;23.14;100.00
20444;BME280;10381;53.730;10.010;2023-07-16T12:09:34;100779.09;;;22.67;100.00
20444;BME280;10381;53.730;10.010;2023-07-16T12:13:35;100776.28;;;22.49;100.00
20444;BME280;10381;53.730;10.010;2023-07-16T12:17:35;100778.06;;;22.03;100.00
20444;BME280;10381;53.730;10.010;2023-07-16T12:21:36;100788.72;;;22.50;100.00
20444;BME280;10381;53.730;10.010;2023-07-16T12:25:36;100793.16;;;22.83;100.00
20444;BME280;10381;53.730;10.010;2023-07-16T12:29:36;100798.41;;;22.71;100.00
20444;BME280;10381;53.730;10.010;2023-07-16T12:33:36;100801.44;;;22.29;100.00
20444;BME280;10381;53.730;10.010;2023-07-16T12:37:37;100795.69;;;22.71;100.00
20444;BME280;10381;53.730;10.010;2023-07-16T12:41:37;100803.31;;;22.42;100.00
20444;BME280;10381;53.730;10.010;2023-07-16T12:45:37;100811.22;;;22.30;100.00
20444;BME280;10381;53.730;10.010;2023-07-16T12:49:37;100804.56;;;22.20;100.00
20444;BME280;10381;53.730;10.010;2023-07-16T12:53:38;100817.47;;;22.76;100.00
20444;BME280;10381;53.730;10.010;2023-07-16T12:57:38;100821.59;;;22.27;100.00
20444;BME280;10381;53.730;10.010;2023-07-16T13:01:39;100833.56;;;22.51;100.00
20444;BME280;10381;53.730;10.010;2023-07-16T13:05:39;100825.69;;;23.33;100.00
20444;BME280;10381;53.730;10.010;2023-07-16T13:09:39;100831.97;;;23.27;100.00
20444;BME280;10381;53.730;10.010;2023-07-16T13:13:39;100847.00;;;22.71;100.00
20444;BME280;10381;53.730;10.010;2023-07-16T13:17:41;100842.16;;;22.86;100.00
20444;BME280;10381;53.730;10.010;2023-07-16T13:21:41;100841.84;;;22.63;100.00
20444;BME280;10381;53.730;10.010;2023-07-16T13:25:42;100847.19;;;22.76;100.00
20444;BME280;10381;53.730;10.010;2023-07-16T13:29:42;100847.13;;;22.89;100.00
20444;BME280;10381;53.730;10.010;2023-07-16T13:33:42;100854.13;;;22.59;100.00
20444;BME280;10381;53.730;10.010;2023-07-16T13:37:43;100857.34;;;21.82;100.00
20444;BME280;10381;53.730;10.010;2023-07-16T13:41:43;100855.66;;;21.81;100.00
20444;BME280;10381;53.730;10.010;2023-07-16T13:45:44;100868.53;;;22.06;100.00
20444;BME280;10381;53.730;10.010;2023-07-16T13:49:44;100883.19;;;23.15;100.00
20444;BME280;10381;53.730;10.010;2023-07-16T13:53:44;100883.22;;;22.43;100.00
20444;BME280;10381;53.730;10.010;2023-07-16T13:57:45;100877.69;;;21.85;100.00
20444;BME280;10381;53.730;10.010;2023-07-16T14:01:45;100869.56;;;21.78;100.00
20444;BME280;10381;53.730;10.010;2023-07-16T14:05:47;100882.00;;;22.12;100.00
20444;BME280;10381;53.730;10.010;2023-07-16T14:09:48;100885.16;;;22.88;100.00
20444;BME280;10381;53.730;10.010;2023-07-16T14:13:49;100881.97;;;22.39;100.00
20444;BME280;10381;53.730;10.010;2023-07-16T14:17:51;100887.97;;;22.54;100.00
20444;BME280;10381;53.730;10.010;2023-07-16T14:21:51;100888.66;;;22.17;100.00
20444;BME280;10381;53.730;10.010;2023-07-16T14:25:51;100895.50;;;22.32;100.00
20444;BME280;10381;53.730;10.010;2023-07-16T14:29:52;100900.06;;;22.05;100.00
20444;BME280;10381;53.730;10.010;2023-07-16T14:33:52;100897.59;;;22.10;100.00
20444;BME280;10381;53.730;10.010;2023-07-16T14:37:52;100901.69;;;22.46;100.00
20444;BME280;10381;53.730;10.010;2023-07-16T14:41:53;100908.78;;;22.07;100.00
20444;BME280;10381;53.730;10.010;2023-07-16T14:45:53;100906.09;;;22.34;100.00
20444;BME280;10381;53.730;10.010;2023-07-16T14:49:53;100906.00;;;22.74;100.00
20444;BME280;10381;53.730;10.010;2023-07-16T14:53:55;100902.94;;;22.57;100.00
20444;BME280;10381;53.730;10.010;2023-07-16T14:57:55;100902.91;;;23.86;100.00
20444;BME280;10381;53.730;10.010;2023-07-16T15:01:55;100898.09;;;22.72;100.00
20444;BME280;10381;53.730;10.010;2023-07-16T15:05:57;100899.59;;;22.68;100.00
20444;BME280;10381;53.730;10.010;2023-07-16T15:09:58;100906.81;;;22.74;100.00
20444;BME280;10381;53.730;10.010;2023-07-16T15:13:58;100906.44;;;22.58;100.00
20444;BME280;10381;53.730;10.010;2023-07-16T15:17:58;100903.66;;;22.84;100.00
20444;BME280;10381;53.730;10.010;2023-07-16T15:21:59;100911.03;;;24.91;100.00
20444;BME280;10381;53.730;10.010;2023-07-16T15:26:04;100915.50;;;25.16;100.00
20444;BME280;10381;53.730;10.010;2023-07-16T15:30:05;100908.94;;;24.56;100.00
20444;BME280;10381;53.730;10.010;2023-07-16T15:34:06;100906.66;;;24.53;100.00
20444;BME280;10381;53.730;10.010;2023-07-16T15:38:06;100906.31;;;24.68;100.00
20444;BME280;10381;53.730;10.010;2023-07-16T15:42:06;100913.75;;;24.54;100.00
20444;BME280;10381;53.730;10.010;2023-07-16T15:46:07;100911.94;;;24.85;100.00
20444;BME280;10381;53.730;10.010;2023-07-16T15:50:07;100926.22;;;25.83;100.00
20444;BME280;10381;53.730;10.010;2023-07-16T15:54:08;100929.63;;;24.51;100.00
20444;BME280;10381;53.730;10.010;2023-07-16T15:58:08;100918.06;;;23.93;100.00
20444;BME280;10381;53.730;10.010;2023-07-16T16:02:08;100909.53;;;22.68;100.00
20444;BME280;10381;53.730;10.010;2023-07-16T16:06:09;100917.28;;;21.91;100.00
20444;BME280;10381;53.730;10.010;2023-07-16T16:10:09;100911.47;;;21.61;100.00
20444;BME280;10381;53.730;10.010;2023-07-16T16:14:09;100920.81;;;21.58;100.00
20444;BME280;10381;53.730;10.010;2023-07-16T16:18:11;100913.00;;;21.28;100.00
20444;BME280;10381;53.730;10.010;2023-07-16T16:22:12;100914.16;;;21.41;100.00
20444;BME280;10381;53.730;10.010;2023-07-16T16:26:12;100908.13;;;21.45;100.00
20444;BME280;10381;53.730;10.010;2023-07-16T16:30:12;100915.44;;;21.65;100.00
20444;BME280;10381;53.730;10.010;2023-07-16T16:34:12;100920.41;;;21.95;100.00
20444;BME280;10381;53.730;10.010;2023-07-16T16:38:13;100910.47;;;22.08;100.00
20444;BME280;10381;53.730;10.010;2023-07-16T16:42:14;100916.66;;;21.76;100.00
20444;BME280;10381;53.730;10.010;2023-07-16T16:46:14;100902.56;;;21.87;100.00
20444;BME280;10381;53.730;10.010;2023-07-16T16:50:15;100912.31;;;21.88;100.00
20444;BME280;10381;53.730;10.010;2023-07-16T16:54:15;100911.75;;;22.84;100.00
20444;BME280;10381;53.730;10.010;2023-07-16T16:58:15;100917.09;;;22.06;100.00
20444;BME280;10381;53.730;10.010;2023-07-16T17:02:16;100920.81;;;22.38;100.00
20444;BME280;10381;53.730;10.010;2023-07-16T17:06:16;100927.69;;;21.87;100.00
20444;BME280;10381;53.730;10.010;2023-07-16T17:10:17;100918.72;;;21.67;100.00
20444;BME280;10381;53.730;10.010;2023-07-16T17:14:17;100923.28;;;21.53;100.00
20444;BME280;10381;53.730;10.010;2023-07-16T17:18:17;100910.56;;;21.34;100.00
20444;BME280;10381;53.730;10.010;2023-07-16T17:22:17;100925.88;;;21.26;100.00
20444;BME280;10381;53.730;10.010;2023-07-16T17:26:18;100924.81;;;21.21;100.00
20444;BME280;10381;53.730;10.010;2023-07-16T17:30:18;100922.13;;;21.14;100.00
20444;BME280;10381;53.730;10.010;2023-07-16T17:34:19;100930.38;;;21.13;100.00
20444;BME280;10381;53.730;10.010;2023-07-16T17:38:20;100936.03;;;21.24;100.00
20444;BME280;10381;53.730;10.010;2023-07-16T17:42:20;100937.03;;;21.23;100.00
20444;BME280;10381;53.730;10.010;2023-07-16T17:46:20;100937.22;;;21.15;100.00
20444;BME280;10381;53.730;10.010;2023-07-16T17:50:20;100925.56;;;21.01;100.00
20444;BME280;10381;53.730;10.010;2023-07-16T17:54:22;100929.72;;;20.97;100.00
20444;BME280;10381;53.730;10.010;2023-07-16T17:58:22;100931.09;;;20.87;100.00
20444;BME280;10381;53.730;10.010;2023-07-16T18:02:22;100926.72;;;20.79;100.00
20444;BME280;10381;53.730;10.010;2023-07-16T18:06:23;100920.75;;;20.83;100.00
20444;BME280;10381;53.730;10.010;2023-07-16T18:10:26;100922.16;;;20.79;100.00
20444;BME280;10381;53.730;10.010;2023-07-16T18:14:26;100923.41;;;20.77;100.00
20444;BME280;10381;53.730;10.010;2023-07-16T18:18:27;100921.59;;;20.91;100.00
20444;BME280;10381;53.730;10.010;2023-07-16T18:22:27;100921.38;;;20.92;100.00
20444;BME280;10381;53.730;10.010;2023-07-16T18:26:27;100932.59;;;20.96;100.00
20444;BME280;10381;53.730;10.010;2023-07-16T18:30:28;100928.22;;;20.88;100.00
20444;BME280;10381;53.730;10.010;2023-07-16T18:34:29;100935.22;;;20.82;100.00
20444;BME280;10381;53.730;10.010;2023-07-16T18:38:30;100937.13;;;20.89;100.00
20444;BME280;10381;53.730;10.010;2023-07-16T18:42:30;100943.66;;;20.73;100.00
20444;BME280;10381;53.730;10.010;2023-07-16T18:46:31;100944.81;;;20.57;100.00
20444;BME280;10381;53.730;10.010;2023-07-16T18:50:33;100941.41;;;20.48;100.00
20444;BME280;10381;53.730;10.010;2023-07-16T18:54:33;100942.22;;;20.42;100.00
20444;BME280;10381;53.730;10.010;2023-07-16T18:58:34;100945.63;;;20.29;100.00
20444;BME280;10381;53.730;10.010;2023-07-16T19:02:34;100936.25;;;20.18;100.00
20444;BME280;10381;53.730;10.010;2023-07-16T19:06:34;100930.75;;;20.05;100.00
20444;BME280;10381;53.730;10.010;2023-07-16T19:10:35;100929.44;;;19.94;100.00
20444;BME280;10381;53.730;10.010;2023-07-16T19:14:38;100937.19;;;19.83;100.00
20444;BME280;10381;53.730;10.010;2023-07-16T19:18:38;100938.75;;;19.77;100.00
20444;BME280;10381;53.730;10.010;2023-07-16T19:22:39;100938.75;;;19.55;100.00
20444;BME280;10381;53.730;10.010;2023-07-16T19:26:39;100941.50;;;19.26;100.00
20444;BME280;10381;53.730;10.010;2023-07-16T19:30:40;100943.78;;;19.07;100.00
20444;BME280;10381;53.730;10.010;2023-07-16T19:34:40;100952.72;;;19.14;100.00
20444;BME280;10381;53.730;10.010;2023-07-16T19:38:43;100957.56;;;19.04;100.00
20444;BME280;10381;53.730;10.010;2023-07-16T19:42:43;100962.94;;;18.89;100.00
20444;BME280;10381;53.730;10.010;2023-07-16T19:46:44;100970.91;;;19.12;100.00
20444;BME280;10381;53.730;10.010;2023-07-16T19:50:44;100972.19;;;19.16;100.00
20444;BME280;10381;53.730;10.010;2023-07-16T19:54:47;100977.47;;;18.80;100.00
20444;BME280;10381;53.730;10.010;2023-07-16T19:58:48;100972.03;;;18.88;100.00
20444;BME280;10381;53.730;10.010;2023-07-16T20:02:48;100982.19;;;18.78;100.00
20444;BME280;10381;53.730;10.010;2023-07-16T20:06:48;100991.53;;;18.67;100.00
20444;BME280;10381;53.730;10.010;2023-07-16T20:10:49;101000.16;;;18.40;100.00
20444;BME280;10381;53.730;10.010;2023-07-16T20:14:49;100991.03;;;18.64;100.00
20444;BME280;10381;53.730;10.010;2023-07-16T20:18:49;100999.47;;;18.61;100.00
20444;BME280;10381;53.730;10.010;2023-07-16T20:22:50;100986.47;;;18.49;100.00
20444;BME280;10381;53.730;10.010;2023-07-16T20:26:50;100990.38;;;18.47;100.00
20444;BME280;10381;53.730;10.010;2023-07-16T20:30:50;100996.03;;;18.14;100.00
20444;BME280;10381;53.730;10.010;2023-07-16T20:34:51;100981.16;;;18.12;100.00